Time;durP1;ratioP1;P1;durP2;ratioP2;P2;SDS_P1;SDS_P2;PMS_P1;PMS_P2;Temp;Humidity;BMP_temperature;BMP_pressure;BME280_temperature;BME280_humidity;BME280_pressure;Samples;Min_cycle;Max_cycle;Signal;HPM_P1;HPM_P2
2022/11/27 05:00:15;;;;;;;6.30;4.57;;;3.80;99.90;;;;;;6006695;23;21663;31
2022/11/27 05:02:41;;;;;;;6.90;4.35;;;3.80;99.90;;;;;;4947469;28;20237;-69
2022/11/27 05:05:09;;;;;;;2.47;2.30;;;3.70;99.90;;;;;;4952359;28;20220;-68
2022/11/27 05:07:35;;;;;;;4.05;3.15;;;3.70;99.90;;;;;;4950815;28;20236;-69
2022/11/27 05:10:03;;;;;;;4.55;4.10;;;3.70;99.90;;;;;;4956459;28;20216;-69
2022/11/27 05:12:29;;;;;;;2.20;2.10;;;3.70;99.90;;;;;;4934372;29;20613;-69
2022/11/27 05:14:56;;;;;;;4.95;4.55;;;3.70;99.90;;;;;;4933263;29;20320;-68
2022/11/27 05:17:24;;;;;;;13.75;5.05;;;3.70;99.90;;;;;;4922157;29;20211;-69
2022/11/27 05:19:51;;;;;;;8.95;3.30;;;3.60;99.90;;;;;;4924589;29;20264;-69
2022/11/27 05:22:17;;;;;;;3.72;3.50;;;3.60;99.90;;;;;;4933975;29;20632;-69
2022/11/27 05:24:44;;;;;;;5.22;4.88;;;3.60;99.90;;;;;;4934743;29;20241;-69
2022/11/27 05:27:11;;;;;;;1.92;1.83;;;3.60;99.90;;;;;;4934791;29;20213;-69
2022/11/27 05:29:39;;;;;;;2.53;2.40;;;3.60;99.90;;;;;;4932263;29;20217;-70
2022/11/27 05:32:05;;;;;;;4.25;2.65;;;3.60;99.90;;;;;;4924858;29;20231;-69
2022/11/27 05:34:34;;;;;;;9.27;3.60;;;3.60;99.90;;;;;;4927403;29;20207;-70
2022/11/27 05:37:01;;;;;;;2.38;1.83;;;3.60;99.90;;;;;;4935177;29;20218;-69
2022/11/27 05:39:27;;;;;;;4.03;3.05;;;3.60;99.90;;;;;;4927127;29;20301;-70
2022/11/27 05:41:54;;;;;;;2.88;2.67;;;3.60;99.90;;;;;;4930891;29;20615;-69
2022/11/27 05:44:21;;;;;;;7.15;4.07;;;3.50;99.90;;;;;;4932309;29;20274;-69
2022/11/27 05:46:47;;;;;;;4.53;3.53;;;3.60;99.90;;;;;;4928741;29;20207;-68
2022/11/27 05:49:15;;;;;;;3.05;2.95;;;3.60;99.90;;;;;;4929816;29;20221;-69
2022/11/27 05:51:44;;;;;;;9.63;4.32;;;3.60;99.90;;;;;;4929696;29;20223;-68
2022/11/27 05:54:10;;;;;;;2.10;2.00;;;3.60;99.90;;;;;;4929508;29;20206;-69
2022/11/27 05:56:37;;;;;;;6.65;6.15;;;3.60;99.90;;;;;;4931748;29;20206;-69
2022/11/27 05:59:04;;;;;;;4.72;4.25;;;3.60;99.90;;;;;;4928842;29;20221;-69
2022/11/27 06:01:31;;;;;;;4.95;3.90;;;3.60;99.90;;;;;;4930653;29;20245;-69
2022/11/27 06:03:57;;;;;;;17.90;3.90;;;3.60;99.90;;;;;;4933241;29;20355;-69
2022/11/27 06:06:24;;;;;;;7.15;5.07;;;3.50;99.90;;;;;;4931454;29;20245;-69
2022/11/27 06:08:52;;;;;;;10.95;2.60;;;3.50;99.90;;;;;;4933095;29;20287;-70
2022/11/27 06:11:20;;;;;;;5.57;4.30;;;3.50;99.90;;;;;;4940122;28;20630;-69
2022/11/27 06:13:48;;;;;;;2.67;2.25;;;3.50;99.90;;;;;;4932483;29;20207;-69
2022/11/27 06:16:17;;;;;;;5.75;2.80;;;3.50;99.90;;;;;;4932094;29;20217;-70
2022/11/27 06:18:44;;;;;;;5.68;5.30;;;3.50;99.90;;;;;;4926252;29;20270;-69
2022/11/27 06:21:12;;;;;;;7.13;4.50;;;3.40;99.90;;;;;;4932572;28;20289;-68
2022/11/27 06:23:39;;;;;;;22.02;4.72;;;3.40;99.90;;;;;;4921704;29;20266;-68
2022/11/27 06:26:12;;;;;;;3.13;2.55;;;3.40;99.90;;;;;;4932381;29;20217;-69
2022/11/27 06:28:39;;;;;;;1.95;1.70;;;3.40;99.90;;;;;;4931937;29;20210;-69
2022/11/27 06:31:08;;;;;;;4.78;3.10;;;3.40;99.90;;;;;;4939437;28;20839;-69
2022/11/27 06:33:34;;;;;;;7.05;2.35;;;3.30;99.90;;;;;;4932719;29;20202;-70
2022/11/27 06:36:01;;;;;;;3.10;2.78;;;3.30;99.90;;;;;;4940346;29;20580;-69
2022/11/27 06:38:28;;;;;;;6.65;3.97;;;3.30;99.90;;;;;;4932840;29;20624;-69
2022/11/27 06:40:55;;;;;;;3.10;2.90;;;3.30;99.90;;;;;;4931503;28;20685;-69
2022/11/27 06:43:23;;;;;;;4.85;3.53;;;3.30;99.90;;;;;;4924100;29;20240;-69
2022/11/27 06:45:56;;;;;;;5.28;3.95;;;3.30;99.90;;;;;;4931485;29;20285;-69
2022/11/27 06:48:23;;;;;;;12.75;4.22;;;3.20;99.90;;;;;;4921226;29;20762;-68
2022/11/27 06:50:50;;;;;;;5.35;3.42;;;3.20;99.90;;;;;;4925323;28;20293;-68
2022/11/27 06:53:17;;;;;;;6.43;3.55;;;3.20;99.90;;;;;;4924475;29;20293;-69
2022/11/27 06:55:44;;;;;;;3.47;3.15;;;3.20;99.90;;;;;;4938487;29;20213;-69
2022/11/27 06:58:11;;;;;;;3.47;3.20;;;3.20;99.90;;;;;;4936007;29;20311;-70
2022/11/27 07:00:39;;;;;;;5.35;3.60;;;3.20;99.90;;;;;;4932548;29;20360;-69
2022/11/27 07:03:06;;;;;;;5.53;3.38;;;3.20;99.90;;;;;;4933804;29;20213;-69
2022/11/27 07:05:33;;;;;;;6.13;3.03;;;3.20;99.90;;;;;;4937302;29;20209;-71
2022/11/27 07:08:00;;;;;;;2.45;2.30;;;3.20;99.90;;;;;;4939091;29;20206;-69
2022/11/27 07:10:26;;;;;;;1.75;1.65;;;3.20;99.90;;;;;;4935136;28;20216;-70
2022/11/27 07:12:53;;;;;;;10.95;3.95;;;3.20;99.90;;;;;;4939695;29;20210;-70
2022/11/27 07:15:20;;;;;;;5.88;2.70;;;3.20;99.90;;;;;;4930085;29;20202;-70
2022/11/27 07:17:48;;;;;;;1.83;1.55;;;3.20;99.90;;;;;;4935228;29;20564;-70
2022/11/27 07:20:15;;;;;;;3.20;2.47;;;3.20;99.90;;;;;;4935819;29;20218;-70
2022/11/27 07:22:42;;;;;;;7.28;4.50;;;3.20;99.90;;;;;;4935900;29;20237;-69
2022/11/27 07:25:09;;;;;;;3.15;2.75;;;3.20;99.90;;;;;;4938136;29;20233;-70
2022/11/27 07:27:36;;;;;;;3.35;2.08;;;3.20;99.90;;;;;;4931454;29;20222;-70
2022/11/27 07:30:02;;;;;;;8.90;4.28;;;3.20;99.90;;;;;;4936441;29;20704;-69
2022/11/27 07:32:29;;;;;;;2.15;2.05;;;3.10;99.90;;;;;;4930864;29;20222;-70
2022/11/27 07:34:57;;;;;;;5.35;2.65;;;3.20;99.90;;;;;;4936979;29;20206;-69
2022/11/27 07:37:24;;;;;;;14.27;4.00;;;3.20;99.90;;;;;;4943466;29;20201;-68
2022/11/27 07:39:51;;;;;;;4.32;3.92;;;3.20;99.90;;;;;;4927982;29;20210;-70
2022/11/27 07:42:17;;;;;;;3.70;3.40;;;3.20;99.90;;;;;;4935496;29;20288;-69
2022/11/27 07:44:44;;;;;;;3.22;2.83;;;3.20;99.90;;;;;;4934940;29;20218;-68
2022/11/27 07:47:11;;;;;;;4.50;4.13;;;3.20;99.90;;;;;;4925168;29;20206;-69
2022/11/27 07:49:37;;;;;;;3.20;2.92;;;3.20;99.90;;;;;;4930954;29;20265;-69
2022/11/27 07:52:06;;;;;;;2.25;2.15;;;3.20;99.90;;;;;;4936442;29;20265;-69
2022/11/27 07:54:33;;;;;;;4.35;4.00;;;3.30;99.90;;;;;;4934781;29;20206;-68
2022/11/27 07:57:00;;;;;;;4.03;3.70;;;3.30;99.90;;;;;;4937051;29;20218;-69
2022/11/27 07:59:27;;;;;;;3.53;2.70;;;3.40;99.90;;;;;;4928709;29;20218;-68
2022/11/27 08:01:54;;;;;;;6.03;5.47;;;3.40;99.90;;;;;;4932522;29;20732;-68
2022/11/27 08:04:20;;;;;;;4.47;4.13;;;3.40;99.90;;;;;;4925320;29;20230;-70
2022/11/27 08:06:49;;;;;;;6.03;4.55;;;3.40;99.90;;;;;;4932478;29;20206;-69
2022/11/27 08:09:17;;;;;;;6.93;2.60;;;3.40;99.90;;;;;;4937122;29;20304;-69
2022/11/27 08:11:44;;;;;;;8.35;5.65;;;3.40;99.90;;;;;;4933281;29;20226;-68
2022/11/27 08:14:13;;;;;;;3.25;3.05;;;3.40;99.90;;;;;;4932577;29;20657;-69
2022/11/27 08:16:40;;;;;;;4.10;4.00;;;3.40;99.90;;;;;;4928611;29;20740;-69
2022/11/27 08:19:06;;;;;;;3.95;3.38;;;3.40;99.90;;;;;;4937646;29;20225;-69
2022/11/27 08:21:33;;;;;;;5.13;4.65;;;3.40;99.90;;;;;;4935422;29;20261;-69
2022/11/27 08:24:00;;;;;;;3.85;3.58;;;3.40;99.90;;;;;;4937958;29;20225;-69
2022/11/27 08:26:28;;;;;;;5.30;4.68;;;3.40;99.90;;;;;;4931855;29;20211;-69
2022/11/27 08:28:56;;;;;;;4.70;4.35;;;3.40;99.90;;;;;;4929833;29;20215;-69
2022/11/27 08:31:23;;;;;;;3.45;3.25;;;3.40;99.90;;;;;;4932382;29;20596;-69
2022/11/27 08:33:50;;;;;;;4.80;3.58;;;3.40;99.90;;;;;;4931167;29;20655;-69
2022/11/27 08:36:17;;;;;;;8.57;5.43;;;3.50;99.90;;;;;;4934812;29;20285;-69
2022/11/27 08:38:43;;;;;;;8.90;6.72;;;3.50;99.90;;;;;;4935951;29;20436;-69
2022/11/27 08:41:10;;;;;;;3.22;3.13;;;3.60;99.90;;;;;;4929532;29;20570;-69
2022/11/27 08:43:38;;;;;;;2.85;2.75;;;3.60;99.90;;;;;;4935278;29;20207;-69
2022/11/27 08:46:06;;;;;;;4.20;3.85;;;3.70;99.90;;;;;;4934468;29;20215;-69
2022/11/27 08:48:32;;;;;;;3.00;2.80;;;3.70;99.90;;;;;;4933574;29;20281;-69
2022/11/27 08:50:59;;;;;;;3.70;3.50;;;3.80;99.90;;;;;;4923152;29;20286;-69
2022/11/27 08:53:26;;;;;;;6.97;3.72;;;3.90;99.90;;;;;;4931711;29;20281;-69
2022/11/27 08:55:53;;;;;;;5.00;4.60;;;4.00;99.90;;;;;;4930129;29;20214;-70
2022/11/27 08:58:20;;;;;;;5.68;5.28;;;4.10;99.90;;;;;;4932992;29;20210;-69
2022/11/27 09:00:48;;;;;;;8.43;3.15;;;4.10;99.90;;;;;;4941967;29;20954;-70
2022/11/27 09:03:15;;;;;;;4.60;4.25;;;4.20;99.90;;;;;;4929271;29;20740;-68
2022/11/27 09:05:43;;;;;;;9.43;3.80;;;4.30;99.90;;;;;;4927592;29;20222;-69
2022/11/27 09:08:12;;;;;;;4.82;4.38;;;4.30;99.90;;;;;;4935872;29;20207;-71
2022/11/27 09:10:39;;;;;;;4.85;4.55;;;4.40;99.90;;;;;;4933539;29;20296;-69
2022/11/27 09:13:05;;;;;;;7.63;5.18;;;4.40;99.90;;;;;;4940660;29;20213;-69
2022/11/27 09:15:32;;;;;;;4.95;4.45;;;4.50;99.90;;;;;;4924992;29;20207;-69
2022/11/27 09:18:00;;;;;;;4.55;3.85;;;4.50;99.90;;;;;;4930114;29;20226;-70
2022/11/27 09:20:27;;;;;;;6.80;4.88;;;4.60;99.90;;;;;;4921892;29;20526;-69
2022/11/27 09:22:54;;;;;;;5.50;3.72;;;4.60;99.90;;;;;;4935001;29;20225;-70
2022/11/27 09:25:20;;;;;;;2.58;2.08;;;4.70;99.90;;;;;;4922730;29;20270;-70
2022/11/27 09:27:47;;;;;;;6.88;5.10;;;4.60;99.90;;;;;;4931998;29;20320;-69
2022/11/27 09:30:14;;;;;;;5.43;3.50;;;4.70;99.90;;;;;;4923808;29;20267;-70
2022/11/27 09:32:41;;;;;;;4.35;3.63;;;4.70;99.90;;;;;;4926353;29;20226;-69
2022/11/27 09:35:09;;;;;;;5.65;3.63;;;4.70;99.90;;;;;;4927368;29;20657;-69
2022/11/27 09:37:36;;;;;;;1.55;1.55;;;4.70;99.90;;;;;;4939426;29;20550;-70
2022/11/27 09:40:04;;;;;;;4.05;3.85;;;4.80;99.90;;;;;;4935450;29;20225;-70
2022/11/27 09:42:39;;;;;;;2.53;2.33;;;4.80;99.90;;;;;;4926986;29;20768;-70
2022/11/27 09:45:11;;;;;;;12.02;4.22;;;4.80;99.90;;;;;;4930230;29;20258;-70
2022/11/27 09:47:41;;;;;;;7.88;3.75;;;4.80;99.90;;;;;;4934434;29;20242;-70
2022/11/27 09:50:14;;;;;;;8.98;4.18;;;4.80;99.90;;;;;;4931275;29;20302;-70
2022/11/27 09:52:43;;;;;;;4.40;3.25;;;4.80;99.90;;;;;;4939121;29;20278;-70
2022/11/27 09:55:16;;;;;;;4.35;4.05;;;4.90;99.90;;;;;;4921510;29;20211;-70
2022/11/27 09:57:53;;;;;;;10.02;4.10;;;4.90;99.90;;;;;;4933325;29;20594;-70
2022/11/27 10:00:20;;;;;;;4.20;3.80;;;5.00;99.90;;;;;;4936425;29;20616;-70
2022/11/27 10:02:47;;;;;;;5.07;4.68;;;5.00;99.90;;;;;;4932446;29;20198;-70
2022/11/27 10:05:20;;;;;;;2.83;2.72;;;5.00;99.90;;;;;;4934994;29;20229;-71
2022/11/27 10:08:15;;;;;;;3.70;2.70;;;5.10;99.90;;;;;;4926885;29;20271;-70
2022/11/27 10:10:52;;;;;;;3.38;3.17;;;5.10;99.90;;;;;;4919142;29;20302;-70
2022/11/27 10:13:33;;;;;;;5.13;4.78;;;5.20;99.90;;;;;;4928677;29;20210;-71
2022/11/27 10:16:09;;;;;;;2.65;2.45;;;5.20;99.90;;;;;;4931751;29;20207;-70
2022/11/27 10:18:40;;;;;;;9.30;6.63;;;5.30;99.90;;;;;;4920473;29;20211;-70
2022/11/27 10:21:14;;;;;;;3.33;3.22;;;5.30;99.90;;;;;;4928111;28;20236;-70
2022/11/27 10:23:46;;;;;;;3.38;3.25;;;5.40;99.90;;;;;;4931040;29;20202;-70
2022/11/27 10:26:18;;;;;;;7.82;3.03;;;5.50;99.90;;;;;;4930760;29;20235;-70
2022/11/27 10:28:51;;;;;;;15.45;3.13;;;5.60;99.90;;;;;;4920563;29;20203;-70
2022/11/27 10:31:23;;;;;;;4.47;4.18;;;5.80;99.90;;;;;;4933598;29;20237;-71
2022/11/27 10:33:54;;;;;;;8.93;3.67;;;5.90;99.90;;;;;;4940672;29;20203;-70
2022/11/27 10:36:29;;;;;;;2.75;2.65;;;6.00;99.90;;;;;;4936101;29;20221;-71
2022/11/27 10:38:59;;;;;;;5.82;4.10;;;6.00;99.90;;;;;;4932208;29;20202;-71
2022/11/27 10:41:31;;;;;;;10.75;3.50;;;6.10;99.90;;;;;;4922084;29;20361;-71
2022/11/27 10:44:15;;;;;;;5.03;4.07;;;6.10;99.90;;;;;;4939615;29;20540;-70
2022/11/27 10:46:42;;;;;;;6.32;4.68;;;6.10;99.90;;;;;;4936503;29;20302;-70
2022/11/27 10:49:09;;;;;;;6.63;3.60;;;6.10;99.90;;;;;;4938068;29;20215;-70
2022/11/27 10:51:38;;;;;;;5.00;3.83;;;6.20;99.90;;;;;;4935867;29;20235;-71
2022/11/27 10:54:13;;;;;;;4.72;3.05;;;6.20;99.90;;;;;;4938127;29;20207;-70
2022/11/27 10:56:56;;;;;;;5.72;5.18;;;6.20;99.90;;;;;;4941155;29;20649;-70
2022/11/27 10:59:26;;;;;;;7.10;4.85;;;6.20;99.90;;;;;;4928820;29;20212;-70
2022/11/27 11:01:53;;;;;;;9.57;2.55;;;6.20;99.90;;;;;;4934813;29;20239;-70
2022/11/27 11:04:22;;;;;;;10.40;4.40;;;6.20;99.90;;;;;;4929112;29;20664;-70
2022/11/27 11:06:50;;;;;;;5.55;3.70;;;6.20;99.90;;;;;;4938159;29;20266;-70
2022/11/27 11:09:20;;;;;;;3.72;2.75;;;6.20;99.90;;;;;;4935644;29;20211;-69
2022/11/27 11:11:46;;;;;;;11.88;2.65;;;6.20;99.90;;;;;;4936609;29;20238;-70
2022/11/27 11:14:19;;;;;;;5.72;5.22;;;6.20;99.90;;;;;;4932820;29;20218;-70
2022/11/27 11:16:46;;;;;;;3.10;2.90;;;6.20;99.90;;;;;;4931164;29;20237;-72
2022/11/27 11:19:23;;;;;;;8.43;2.45;;;6.20;99.90;;;;;;4935846;29;20696;-72
2022/11/27 11:21:52;;;;;;;6.90;4.47;;;6.20;99.90;;;;;;4935005;29;20234;-71
2022/11/27 11:24:26;;;;;;;3.85;3.72;;;6.30;99.90;;;;;;4934197;29;20263;-71
2022/11/27 11:26:55;;;;;;;14.75;4.78;;;6.30;99.90;;;;;;4939284;29;20658;-71
2022/11/27 11:29:28;;;;;;;7.95;3.20;;;6.30;99.90;;;;;;4931098;29;20226;-72
2022/11/27 11:31:58;;;;;;;3.67;3.38;;;6.30;99.90;;;;;;4928891;29;20220;-72
2022/11/27 11:34:27;;;;;;;6.97;5.95;;;6.30;99.90;;;;;;4934469;29;20208;-71
2022/11/27 11:36:58;;;;;;;3.83;2.97;;;6.40;99.90;;;;;;4935498;29;20563;-70
2022/11/27 11:39:27;;;;;;;7.47;3.30;;;6.40;99.90;;;;;;4930605;29;20655;-72
2022/11/27 11:41:54;;;;;;;3.67;3.42;;;6.50;99.90;;;;;;4926469;29;20709;-72
2022/11/27 11:44:25;;;;;;;9.95;3.92;;;6.50;99.90;;;;;;4932030;29;20208;-72
2022/11/27 11:46:53;;;;;;;2.67;2.47;;;6.50;99.90;;;;;;4926622;29;20314;-72
2022/11/27 11:49:24;;;;;;;24.80;3.50;;;6.60;99.90;;;;;;4935595;29;20211;-71
2022/11/27 11:52:09;;;;;;;4.07;3.83;;;6.60;99.90;;;;;;4934924;29;20676;-70
2022/11/27 11:54:47;;;;;;;3.63;3.28;;;6.70;99.90;;;;;;4934054;29;20223;-70
2022/11/27 11:57:30;;;;;;;4.05;2.88;;;6.80;99.90;;;;;;4934861;29;20307;-72
2022/11/27 12:00:08;;;;;;;3.80;3.55;;;6.80;99.90;;;;;;4935422;29;20575;-71
2022/11/27 12:02:47;;;;;;;5.88;3.45;;;6.80;99.90;;;;;;4933398;29;20719;-73
2022/11/27 12:05:24;;;;;;;5.22;4.93;;;6.90;99.90;;;;;;4932062;29;20237;-72
2022/11/27 12:08:13;;;;;;;4.05;3.70;;;6.90;99.90;;;;;;4932878;29;20661;-72
2022/11/27 12:10:50;;;;;;;7.93;2.88;;;6.90;99.90;;;;;;4924881;29;20231;-71
2022/11/27 12:13:29;;;;;;;4.90;3.83;;;7.00;99.90;;;;;;4925154;29;20226;-73
2022/11/27 12:16:06;;;;;;;5.85;3.67;;;7.10;99.90;;;;;;4928974;29;20291;-73
2022/11/27 12:18:46;;;;;;;5.03;4.57;;;7.10;99.90;;;;;;4928920;29;20287;-73
2022/11/27 12:21:14;;;;;;;5.35;4.45;;;7.10;99.90;;;;;;4936570;29;20259;-75
2022/11/27 12:24:03;;;;;;;6.75;3.53;;;7.10;99.90;;;;;;4938331;29;20239;-73
2022/11/27 12:26:43;;;;;;;6.85;3.33;;;7.20;99.90;;;;;;4933562;29;20219;-73
2022/11/27 12:29:31;;;;;;;2.70;2.60;;;7.20;99.90;;;;;;4937205;29;20211;-73
2022/11/27 12:32:19;;;;;;;2.90;2.75;;;7.20;99.90;;;;;;4930780;29;20232;-75
2022/11/27 12:34:59;;;;;;;4.22;3.83;;;7.20;99.90;;;;;;4937224;29;20259;-74
2022/11/27 12:37:38;;;;;;;2.53;2.17;;;7.20;99.90;;;;;;4931732;29;20204;-74
2022/11/27 12:40:26;;;;;;;2.35;2.08;;;7.20;99.90;;;;;;4923837;29;20212;-73
2022/11/27 12:42:59;;;;;;;14.52;6.15;;;7.30;99.90;;;;;;4931526;29;20263;-73
2022/11/27 12:45:30;;;;;;;6.32;3.40;;;7.30;99.90;;;;;;4934506;29;20316;-72
2022/11/27 12:48:02;;;;;;;3.92;2.10;;;7.30;99.90;;;;;;4933372;29;20238;-73
2022/11/27 12:50:35;;;;;;;2.67;2.55;;;7.30;99.90;;;;;;4936509;29;20208;-73
2022/11/27 12:53:10;;;;;;;3.13;2.90;;;7.30;99.90;;;;;;4934127;29;20275;-73
2022/11/27 12:55:41;;;;;;;3.13;3.03;;;7.30;99.90;;;;;;4933070;29;20203;-73
2022/11/27 12:58:16;;;;;;;10.38;4.00;;;7.30;99.90;;;;;;4926822;29;20220;-74
2022/11/27 13:00:43;;;;;;;4.13;3.05;;;7.30;99.90;;;;;;4936429;29;20267;-74
2022/11/27 13:03:18;;;;;;;2.97;2.85;;;7.30;99.90;;;;;;4933571;29;20303;-73
2022/11/27 13:05:49;;;;;;;4.60;4.20;;;7.30;99.90;;;;;;4937789;29;21064;-73
2022/11/27 13:08:21;;;;;;;3.30;3.20;;;7.30;99.90;;;;;;4932335;29;20220;-73
2022/11/27 13:10:57;;;;;;;4.00;3.55;;;7.40;99.90;;;;;;4926407;29;20722;-72
2022/11/27 13:13:30;;;;;;;3.83;3.30;;;7.40;99.90;;;;;;4940046;29;20247;-72
2022/11/27 13:16:00;;;;;;;7.25;3.60;;;7.30;99.90;;;;;;4935594;29;20299;-72
2022/11/27 13:18:33;;;;;;;3.58;3.15;;;7.30;99.90;;;;;;4932050;29;20617;-71
2022/11/27 13:21:03;;;;;;;3.40;3.17;;;7.30;99.90;;;;;;4932745;29;20232;-72
2022/11/27 13:23:31;;;;;;;1.30;1.27;;;7.30;99.90;;;;;;4927192;29;20220;-71
2022/11/27 13:26:03;;;;;;;3.22;2.85;;;7.30;99.90;;;;;;4937650;29;20713;-72
2022/11/27 13:28:37;;;;;;;3.42;2.75;;;7.20;99.90;;;;;;4933043;29;20204;-73
2022/11/27 13:31:05;;;;;;;4.22;3.83;;;7.20;99.90;;;;;;4917617;29;20591;-71
2022/11/27 13:33:37;;;;;;;4.32;2.20;;;7.20;99.90;;;;;;4934496;29;20216;-73
2022/11/27 13:36:05;;;;;;;4.25;3.85;;;7.10;99.90;;;;;;4933801;29;20679;-70
2022/11/27 13:38:35;;;;;;;3.85;3.55;;;7.10;99.90;;;;;;4934392;29;20204;-70
2022/11/27 13:41:05;;;;;;;3.78;3.50;;;7.10;99.90;;;;;;4925796;29;20254;-71
2022/11/27 13:43:41;;;;;;;5.07;3.80;;;7.00;99.90;;;;;;4937363;29;20212;-72
2022/11/27 13:46:12;;;;;;;3.83;3.50;;;7.00;99.90;;;;;;4935186;29;20622;-71
2022/11/27 13:48:41;;;;;;;4.75;4.35;;;7.00;99.90;;;;;;4932176;29;20670;-72
2022/11/27 13:51:10;;;;;;;4.03;3.60;;;7.00;99.90;;;;;;4932531;29;20234;-72
2022/11/27 13:53:39;;;;;;;5.75;2.85;;;6.90;99.90;;;;;;4933498;29;20786;-72
2022/11/27 13:56:08;;;;;;;8.80;3.83;;;6.90;99.90;;;;;;4928464;29;20698;-70
2022/11/27 13:58:37;;;;;;;4.18;3.80;;;6.90;99.90;;;;;;4933636;29;20222;-72
2022/11/27 14:01:15;;;;;;;16.23;5.00;;;6.90;99.90;;;;;;4934821;29;20231;-72
2022/11/27 14:03:42;;;;;;;3.28;3.17;;;6.80;99.90;;;;;;4920375;29;20219;-73
2022/11/27 14:06:23;;;;;;;4.05;2.53;;;6.80;99.90;;;;;;4931381;28;20262;-72
2022/11/27 14:08:57;;;;;;;4.47;2.55;;;6.80;99.90;;;;;;4931501;29;20219;-72
2022/11/27 14:11:40;;;;;;;3.05;2.80;;;6.70;99.90;;;;;;4930242;29;20274;-73
2022/11/27 14:14:16;;;;;;;3.67;3.47;;;6.80;99.90;;;;;;4930699;29;20246;-73
2022/11/27 14:16:52;;;;;;;3.15;2.80;;;6.70;99.90;;;;;;4932870;29;20265;-72
2022/11/27 14:19:28;;;;;;;6.18;2.60;;;6.70;99.90;;;;;;4934685;29;20203;-71
2022/11/27 14:21:55;;;;;;;5.03;4.30;;;6.70;99.90;;;;;;4934147;29;20230;-72
2022/11/27 14:24:34;;;;;;;2.80;1.75;;;6.60;99.90;;;;;;4939408;29;20204;-72
2022/11/27 14:27:07;;;;;;;2.13;2.03;;;6.60;99.90;;;;;;4931993;29;20657;-72
2022/11/27 14:29:34;;;;;;;11.63;3.97;;;6.60;99.90;;;;;;4929647;29;20207;-72
2022/11/27 14:32:02;;;;;;;2.75;2.55;;;6.60;99.90;;;;;;4934562;29;20235;-71
2022/11/27 14:34:29;;;;;;;2.75;2.63;;;6.60;99.90;;;;;;4934181;29;20207;-73
2022/11/27 14:36:57;;;;;;;3.70;3.22;;;6.50;99.90;;;;;;4933438;29;20666;-69
2022/11/27 14:39:25;;;;;;;3.20;2.97;;;6.50;99.90;;;;;;4925813;29;20228;-71
2022/11/27 14:42:00;;;;;;;4.50;4.20;;;6.50;99.90;;;;;;4934089;29;20741;-72
2022/11/27 14:44:28;;;;;;;3.47;2.13;;;6.50;99.90;;;;;;4933441;29;20221;-73
2022/11/27 14:46:57;;;;;;;8.38;1.67;;;6.40;99.90;;;;;;4933546;29;20238;-73
2022/11/27 14:49:26;;;;;;;4.78;3.47;;;6.40;99.90;;;;;;4942556;29;20209;-72
2022/11/27 14:51:55;;;;;;;6.78;2.85;;;6.40;99.90;;;;;;4948874;29;20292;-72
2022/11/27 14:54:26;;;;;;;3.42;3.22;;;6.40;99.90;;;;;;4940525;29;20570;-72
2022/11/27 14:56:53;;;;;;;7.03;4.15;;;6.30;99.90;;;;;;4934468;29;20207;-73
2022/11/27 14:59:22;;;;;;;3.42;3.22;;;6.30;99.90;;;;;;4934077;29;20734;-71
2022/11/27 15:02:01;;;;;;;3.03;2.83;;;6.30;99.90;;;;;;4931871;29;20235;-72
2022/11/27 15:04:32;;;;;;;5.85;5.40;;;6.20;99.90;;;;;;4933006;29;20660;-71
2022/11/27 15:07:00;;;;;;;3.63;3.33;;;6.20;99.90;;;;;;4929701;29;20769;-71
2022/11/27 15:09:28;;;;;;;4.80;4.45;;;6.20;99.90;;;;;;4931933;29;20627;-71
2022/11/27 15:11:58;;;;;;;4.13;3.45;;;6.20;99.90;;;;;;4932679;29;20606;-72
2022/11/27 15:14:27;;;;;;;4.45;4.15;;;6.10;99.90;;;;;;4930535;29;20207;-71
2022/11/27 15:16:55;;;;;;;4.53;4.13;;;6.10;99.90;;;;;;4932529;29;20212;-72
2022/11/27 15:19:28;;;;;;;2.70;2.60;;;6.10;99.90;;;;;;4937906;29;20231;-72
2022/11/27 15:21:56;;;;;;;5.47;4.32;;;6.10;99.90;;;;;;4936801;29;20236;-71
2022/11/27 15:24:30;;;;;;;0.95;0.95;;;6.10;99.90;;;;;;4936913;29;20671;-71
2022/11/27 15:27:12;;;;;;;5.10;4.80;;;6.00;99.90;;;;;;4941020;29;20710;-69
2022/11/27 15:29:39;;;;;;;2.83;2.72;;;6.00;99.90;;;;;;4933529;29;20213;-72
2022/11/27 15:32:16;;;;;;;5.85;2.70;;;6.00;99.90;;;;;;4940101;29;20238;-71
2022/11/27 15:34:45;;;;;;;4.00;2.78;;;6.00;99.90;;;;;;4927590;29;20584;-71
2022/11/27 15:37:22;;;;;;;7.72;4.63;;;5.90;99.90;;;;;;4939476;29;20299;-72
2022/11/27 15:39:51;;;;;;;13.55;5.50;;;5.90;99.90;;;;;;4934732;29;20217;-70
2022/11/27 15:42:19;;;;;;;2.70;2.60;;;5.90;99.90;;;;;;4939310;29;20254;-71
2022/11/27 15:44:47;;;;;;;3.03;1.98;;;5.90;99.90;;;;;;4934523;29;20735;-70
2022/11/27 15:47:23;;;;;;;3.65;3.35;;;5.90;99.90;;;;;;4934264;29;20235;-71
2022/11/27 15:49:51;;;;;;;8.38;2.78;;;5.80;99.90;;;;;;4942129;29;20214;-70
2022/11/27 15:52:17;;;;;;;1.77;1.67;;;5.80;99.90;;;;;;4937104;29;20303;-72
2022/11/27 15:54:44;;;;;;;3.70;1.95;;;5.80;99.90;;;;;;4936523;29;20214;-70
2022/11/27 15:57:11;;;;;;;5.03;4.20;;;5.80;99.90;;;;;;4936891;29;20211;-70
2022/11/27 15:59:38;;;;;;;4.93;4.50;;;5.70;99.90;;;;;;4943900;29;20214;-73
2022/11/27 16:02:05;;;;;;;3.00;2.53;;;5.70;99.90;;;;;;4942719;29;20242;-72
2022/11/27 16:04:32;;;;;;;4.00;3.53;;;5.70;99.90;;;;;;4941114;29;20207;-72
2022/11/27 16:07:00;;;;;;;5.38;3.63;;;5.70;99.90;;;;;;4943469;29;20226;-72
2022/11/27 16:09:27;;;;;;;11.60;6.85;;;5.70;99.90;;;;;;4942535;29;20685;-73
2022/11/27 16:11:54;;;;;;;11.18;8.38;;;5.70;99.90;;;;;;4939962;29;20234;-72
2022/11/27 16:14:21;;;;;;;9.95;7.10;;;5.70;99.90;;;;;;4939145;29;20233;-72
2022/11/27 16:16:47;;;;;;;8.10;7.47;;;5.70;99.90;;;;;;4937209;29;20207;-72
2022/11/27 16:19:15;;;;;;;8.18;4.68;;;5.70;99.90;;;;;;4942396;29;20211;-71
2022/11/27 16:21:42;;;;;;;7.63;4.03;;;5.70;99.90;;;;;;4943815;29;20653;-71
2022/11/27 16:24:12;;;;;;;5.30;3.58;;;5.70;99.90;;;;;;4939009;29;20214;-72
2022/11/27 16:26:39;;;;;;;6.07;5.35;;;5.70;99.90;;;;;;4935113;29;20237;-71
2022/11/27 16:29:07;;;;;;;4.75;4.32;;;5.70;99.90;;;;;;4928665;29;20235;-71
2022/11/27 16:31:34;;;;;;;5.07;3.88;;;5.70;99.90;;;;;;4943663;28;20226;-71
2022/11/27 16:34:01;;;;;;;4.22;3.78;;;5.70;99.90;;;;;;4934695;29;20208;-72
2022/11/27 16:36:28;;;;;;;4.10;3.80;;;5.70;99.90;;;;;;4944237;29;20262;-72
2022/11/27 16:38:55;;;;;;;5.20;4.07;;;5.70;99.90;;;;;;4921136;29;20220;-71
2022/11/27 16:41:24;;;;;;;5.05;3.45;;;5.80;99.90;;;;;;4944637;28;20222;-70
2022/11/27 16:43:52;;;;;;;3.83;3.63;;;5.70;99.90;;;;;;4933987;29;20202;-71
2022/11/27 16:46:20;;;;;;;6.57;3.13;;;5.70;99.90;;;;;;4938781;29;20207;-71
2022/11/27 16:48:48;;;;;;;9.43;5.72;;;5.70;99.90;;;;;;4935473;29;20204;-72
2022/11/27 16:51:17;;;;;;;5.07;3.83;;;5.70;99.90;;;;;;4933651;29;20240;-72
2022/11/27 16:53:45;;;;;;;6.43;4.97;;;5.70;99.90;;;;;;4933381;29;20218;-72
2022/11/27 16:56:14;;;;;;;4.68;4.22;;;5.70;99.90;;;;;;4930197;29;20281;-72
2022/11/27 16:58:44;;;;;;;7.10;4.82;;;5.70;99.90;;;;;;4932632;29;20204;-71
2022/11/27 17:01:13;;;;;;;4.90;4.30;;;5.70;99.90;;;;;;4930694;29;20721;-71
2022/11/27 17:03:40;;;;;;;5.22;4.72;;;5.70;99.90;;;;;;4930323;29;20297;-72
2022/11/27 17:06:07;;;;;;;4.95;4.60;;;5.70;99.90;;;;;;4924476;29;20203;-71
2022/11/27 17:08:34;;;;;;;4.95;4.30;;;5.70;99.90;;;;;;4933654;29;20238;-72
2022/11/27 17:11:07;;;;;;;5.57;3.53;;;5.70;99.90;;;;;;4926942;29;20234;-71
2022/11/27 17:13:34;;;;;;;4.13;4.00;;;5.70;99.90;;;;;;4937391;29;20257;-72
2022/11/27 17:16:02;;;;;;;4.45;3.25;;;5.70;99.90;;;;;;4933971;29;20211;-72
2022/11/27 17:18:28;;;;;;;11.07;4.13;;;5.70;99.90;;;;;;4934498;29;20206;-71
2022/11/27 17:21:00;;;;;;;2.90;2.30;;;5.70;99.90;;;;;;4938449;29;20235;-70
2022/11/27 17:23:27;;;;;;;6.32;5.35;;;5.80;99.90;;;;;;4940593;29;20211;-70
2022/11/27 17:25:53;;;;;;;5.60;4.45;;;5.80;99.90;;;;;;4939553;29;20222;-71
2022/11/27 17:28:20;;;;;;;5.97;3.53;;;5.80;99.90;;;;;;4938504;29;20222;-71
2022/11/27 17:30:47;;;;;;;4.00;3.75;;;5.80;99.90;;;;;;4922837;29;20222;-69
2022/11/27 17:33:15;;;;;;;3.10;2.70;;;5.80;99.90;;;;;;4933547;29;20226;-71
2022/11/27 17:35:42;;;;;;;4.90;4.38;;;5.80;99.90;;;;;;4923118;29;20204;-71
2022/11/27 17:38:08;;;;;;;5.00;4.60;;;5.80;99.90;;;;;;4934211;29;20211;-70
2022/11/27 17:40:35;;;;;;;5.45;4.95;;;5.80;99.90;;;;;;4932932;29;20214;-71
2022/11/27 17:43:02;;;;;;;5.55;4.18;;;5.80;99.90;;;;;;4934481;29;20211;-72
2022/11/27 17:45:28;;;;;;;7.53;6.28;;;5.80;99.90;;;;;;4921217;29;20321;-71
2022/11/27 17:47:55;;;;;;;5.18;4.68;;;5.80;99.90;;;;;;4934168;29;20710;-71
2022/11/27 17:50:23;;;;;;;4.93;4.22;;;5.90;99.90;;;;;;4923955;29;20210;-72
2022/11/27 17:52:52;;;;;;;6.28;5.57;;;5.90;99.90;;;;;;4935170;29;20207;-71
2022/11/27 17:55:19;;;;;;;13.00;3.38;;;5.90;99.90;;;;;;4931520;29;20202;-71
2022/11/27 17:57:45;;;;;;;11.23;2.65;;;5.90;99.90;;;;;;4930806;29;21495;-70
2022/11/27 18:00:13;;;;;;;3.25;3.00;;;5.90;99.90;;;;;;4934311;29;20228;-70
2022/11/27 18:02:39;;;;;;;7.88;5.18;;;5.90;99.90;;;;;;4932069;29;20238;-70
2022/11/27 18:05:07;;;;;;;9.18;5.07;;;5.90;99.90;;;;;;4935330;29;20230;-70
2022/11/27 18:07:35;;;;;;;12.73;6.35;;;6.00;99.90;;;;;;4921792;29;20652;-69